Time;durP1;ratioP1;P1;durP2;ratioP2;P2;SDS_P1;SDS_P2;PMS_P1;PMS_P2;Temp;Humidity;BMP_temperature;BMP_pressure;BME280_temperature;BME280_humidity;BME280_pressure;Samples;Min_cycle;Max_cycle;Signal;HPM_P1;HPM_P2
2021/01/11 03:48:01;;;;;;;17.07;8.50;;;-5.20;99.90;;;;;;4886715;28;87140;-80
2021/01/11 03:50:27;;;;;;;20.23;9.50;;;-5.20;99.90;;;;;;4892302;28;86270;-81
2021/01/11 03:52:52;;;;;;;20.87;9.73;;;-5.30;99.90;;;;;;4891518;28;86879;-81
2021/01/11 03:55:18;;;;;;;21.73;9.07;;;-5.20;99.90;;;;;;4887661;28;86650;-80
2021/01/11 03:57:44;;;;;;;19.53;9.00;;;-5.20;99.90;;;;;;4891571;28;87916;-80
2021/01/11 04:00:10;;;;;;;21.93;9.80;;;-5.10;99.90;;;;;;4876986;28;86674;-80
2021/01/11 04:02:35;;;;;;;23.50;9.20;;;-5.10;99.90;;;;;;4874852;28;86740;-80
2021/01/11 04:05:01;;;;;;;23.97;8.90;;;-5.10;99.90;;;;;;4886638;28;87921;-80
2021/01/11 04:07:27;;;;;;;16.53;7.67;;;;;;;;;;4898226;28;88688;-80
2021/01/11 04:09:53;;;;;;;18.30;7.30;;;-5.10;99.90;;;;;;4891156;28;87054;-80
2021/01/11 04:12:19;;;;;;;15.60;7.20;;;-4.90;99.90;;;;;;4874012;28;87055;-81
2021/01/11 04:14:44;;;;;;;17.97;7.97;;;-5.10;99.90;;;;;;4887195;28;86753;-81
2021/01/11 04:17:11;;;;;;;20.40;8.47;;;-5.20;99.60;;;;;;4895088;28;86608;-81
2021/01/11 04:19:36;;;;;;;17.20;7.57;;;-5.30;99.70;;;;;;4885806;28;86694;-82
2021/01/11 04:22:02;;;;;;;13.73;6.30;;;-5.40;99.80;;;;;;4895037;28;86059;-80
2021/01/11 04:24:28;;;;;;;14.47;7.20;;;-5.50;99.70;;;;;;4889533;28;87895;-80
2021/01/11 04:26:53;;;;;;;17.83;8.63;;;-5.50;99.90;;;;;;4893471;28;86734;-82
2021/01/11 04:29:19;;;;;;;17.83;8.07;;;-5.50;99.80;;;;;;4891167;28;87893;-82
2021/01/11 04:31:47;;;;;;;14.00;7.63;;;-5.70;99.90;;;;;;4901390;28;86831;-83
2021/01/11 04:34:13;;;;;;;15.57;8.50;;;-5.70;99.90;;;;;;4879412;28;89627;-82
2021/01/11 04:36:41;;;;;;;16.17;7.90;;;-5.70;99.90;;;;;;4859119;28;90419;-81
2021/01/11 04:39:07;;;;;;;19.23;7.67;;;-5.80;99.90;;;;;;4886465;28;86666;-82
2021/01/11 04:41:40;;;;;;;15.57;8.00;;;-5.80;99.90;;;;;;4894058;28;86531;-82
2021/01/11 04:44:11;;;;;;;14.10;7.30;;;-5.80;99.90;;;;;;4893304;28;86895;-82
2021/01/11 04:46:37;;;;;;;14.80;7.85;;;-5.80;99.90;;;;;;4894600;28;87978;-82
2021/01/11 04:49:05;;;;;;;16.70;7.30;;;-5.90;99.90;;;;;;4891799;28;87287;-83
2021/01/11 04:51:38;;;;;;;17.13;7.97;;;-5.90;99.90;;;;;;4895611;28;86814;-82
2021/01/11 04:54:06;;;;;;;21.27;8.63;;;-5.90;99.90;;;;;;4895298;28;87647;-80
2021/01/11 04:56:31;;;;;;;15.27;7.70;;;-6.00;99.90;;;;;;4896304;28;87310;-82
2021/01/11 04:58:59;;;;;;;17.10;7.57;;;-6.00;99.90;;;;;;4891473;28;86918;-81
2021/01/11 05:01:28;;;;;;;16.33;7.73;;;-6.00;99.90;;;;;;4893371;28;86873;-82
2021/01/11 05:03:58;;;;;;;16.20;7.40;;;-6.00;99.60;;;;;;4881504;28;87258;-81
2021/01/11 05:06:24;;;;;;;16.00;6.80;;;-6.10;99.40;;;;;;4891613;28;87014;-82
2021/01/11 05:08:51;;;;;;;17.70;7.10;;;-6.10;99.40;;;;;;4877386;28;86327;-82
2021/01/11 05:11:17;;;;;;;17.10;6.80;;;-6.10;99.20;;;;;;4894344;28;86204;-81
2021/01/11 05:13:43;;;;;;;19.33;6.33;;;;;;;;;;4890008;28;88359;-82
2021/01/11 05:16:13;;;;;;;9.57;5.23;;;-6.20;99.10;;;;;;4889660;28;87231;-80
2021/01/11 05:18:39;;;;;;;11.10;5.35;;;;;;;;;;4872379;28;87847;-80
2021/01/11 05:21:05;;;;;;;15.20;6.33;;;-6.20;99.10;;;;;;4894980;28;86818;-82
2021/01/11 05:23:36;;;;;;;10.00;5.17;;;-6.30;99.30;;;;;;4889155;28;89125;-82
2021/01/11 05:26:14;;;;;;;10.95;4.55;;;-6.30;99.40;;;;;;4900796;28;88442;-82
2021/01/11 05:28:43;;;;;;;9.93;5.20;;;-6.40;99.00;;;;;;4896189;28;86901;-83
2021/01/11 05:31:09;;;;;;;17.40;6.27;;;-6.30;99.20;;;;;;4892546;28;86668;-82
2021/01/11 05:33:35;;;;;;;13.00;5.87;;;-5.20;99.70;;;;;;4890582;28;87873;-82
2021/01/11 05:36:07;;;;;;;11.97;6.37;;;-6.40;99.80;;;;;;4891697;28;87316;-81
2021/01/11 05:38:38;;;;;;;12.63;5.87;;;-6.40;99.90;;;;;;4890093;28;87039;-83
2021/01/11 05:41:14;;;;;;;10.68;5.65;;;-6.40;99.90;;;;;;4888767;28;86823;-80
2021/01/11 05:43:40;;;;;;;13.93;6.37;;;-6.40;99.90;;;;;;4891443;28;88421;-81
2021/01/11 05:46:26;;;;;;;15.67;6.33;;;-6.40;99.90;;;;;;4879757;28;91514;-80
2021/01/11 05:49:03;;;;;;;15.93;5.40;;;-6.40;99.90;;;;;;4894198;28;86910;-79
2021/01/11 05:51:31;;;;;;;17.93;7.47;;;-6.40;99.90;;;;;;4881742;28;87058;-79
2021/01/11 05:53:57;;;;;;;19.17;7.70;;;-6.50;99.90;;;;;;4887939;28;88811;-79
2021/01/11 05:56:23;;;;;;;14.60;6.43;;;;;;;;;;4889909;28;87030;-80
2021/01/11 05:59:08;;;;;;;15.20;6.87;;;-6.50;99.90;;;;;;4889821;28;86777;-83
2021/01/11 06:01:35;;;;;;;14.70;7.50;;;-6.50;99.90;;;;;;4880579;28;86033;-81
2021/01/11 06:04:01;;;;;;;8.27;3.53;;;-6.50;99.90;;;;;;4880667;28;88821;-80
2021/01/11 06:06:27;;;;;;;16.63;5.77;;;-6.60;99.90;;;;;;4882365;28;87884;-80
2021/01/11 06:08:53;;;;;;;13.80;5.40;;;-6.60;99.90;;;;;;4882336;28;88573;-81
2021/01/11 06:11:25;;;;;;;9.77;4.70;;;-6.60;99.90;;;;;;4881309;28;87663;-81
2021/01/11 06:13:52;;;;;;;12.13;5.67;;;-6.60;99.90;;;;;;4879586;28;88878;-80
2021/01/11 06:16:19;;;;;;;9.07;4.97;;;-6.50;99.90;;;;;;4879940;28;87837;-80
2021/01/11 06:18:49;;;;;;;11.73;5.63;;;-6.70;99.90;;;;;;4882480;28;87006;-81
2021/01/11 06:21:21;;;;;;;17.73;6.07;;;-6.70;99.90;;;;;;4886524;28;87003;-81
2021/01/11 06:23:48;;;;;;;17.00;5.70;;;-6.70;99.90;;;;;;4880809;28;87685;-81
2021/01/11 06:26:30;;;;;;;12.33;5.57;;;-6.70;99.90;;;;;;4880163;28;86839;-80
2021/01/11 06:28:56;;;;;;;16.30;6.50;;;-6.70;99.90;;;;;;4884149;28;87428;-81
2021/01/11 06:31:31;;;;;;;12.13;5.13;;;-5.80;99.90;;;;;;4894163;28;87559;-80
2021/01/11 06:33:58;;;;;;;10.33;5.50;;;-6.70;99.90;;;;;;4885291;28;87921;-79
2021/01/11 06:36:33;;;;;;;11.40;6.33;;;-6.70;99.90;;;;;;4892491;28;88873;-80
2021/01/11 06:39:09;;;;;;;12.53;6.57;;;-6.70;99.90;;;;;;4890683;28;86732;-81
2021/01/11 06:41:36;;;;;;;7.97;3.97;;;-6.70;99.90;;;;;;4892425;28;87124;-80
2021/01/11 06:44:05;;;;;;;12.13;6.47;;;-6.70;99.90;;;;;;4892206;28;87278;-80
2021/01/11 06:46:30;;;;;;;8.37;4.40;;;-6.70;99.90;;;;;;4896544;28;87172;-79
2021/01/11 06:48:59;;;;;;;13.80;5.30;;;-6.60;99.90;;;;;;4894621;28;86813;-80
2021/01/11 06:51:32;;;;;;;11.70;6.00;;;-5.70;99.90;;;;;;4907764;28;86230;-78
2021/01/11 06:54:20;;;;;;;16.03;4.30;;;-6.60;99.90;;;;;;4891243;28;87532;-79
2021/01/11 06:56:46;;;;;;;15.53;6.10;;;-6.70;99.90;;;;;;4886750;28;87420;-80
2021/01/11 06:59:13;;;;;;;18.33;7.47;;;-6.60;99.90;;;;;;4891807;28;87778;-80
2021/01/11 07:01:42;;;;;;;22.30;9.00;;;-6.70;99.90;;;;;;4897984;28;86897;-80
2021/01/11 07:04:11;;;;;;;18.80;8.80;;;-6.80;99.90;;;;;;4891848;28;86967;-80
2021/01/11 07:06:37;;;;;;;22.67;8.13;;;-6.80;99.90;;;;;;4893674;28;87347;-80
2021/01/11 07:09:04;;;;;;;15.63;7.87;;;-6.80;99.90;;;;;;4891913;28;86267;-80
2021/01/11 07:11:34;;;;;;;19.20;7.37;;;-6.80;99.90;;;;;;4892038;28;86812;-80
2021/01/11 07:14:01;;;;;;;19.10;8.32;;;-6.90;99.90;;;;;;4892161;28;87671;-80
2021/01/11 07:16:51;;;;;;;20.67;8.53;;;-6.90;99.90;;;;;;4891218;28;86367;-80
2021/01/11 07:19:43;;;;;;;17.50;8.27;;;-7.00;99.90;;;;;;4885198;28;86950;-79
2021/01/11 07:22:12;;;;;;;24.60;10.33;;;-6.90;99.90;;;;;;4892040;28;86909;-80
2021/01/11 07:24:41;;;;;;;30.40;10.23;;;-6.90;99.90;;;;;;4890227;28;87898;-79
2021/01/11 07:27:08;;;;;;;34.37;13.03;;;-6.90;99.90;;;;;;4891122;28;87281;-80
2021/01/11 07:29:33;;;;;;;29.13;11.37;;;-6.80;99.90;;;;;;4891063;28;87049;-79
2021/01/11 07:31:59;;;;;;;27.27;9.50;;;-6.80;99.90;;;;;;4891320;28;86499;-80
2021/01/11 07:34:25;;;;;;;22.50;9.67;;;-6.70;99.90;;;;;;4881365;28;88902;-78
2021/01/11 07:36:53;;;;;;;25.60;10.33;;;-6.60;99.90;;;;;;4882127;28;87999;-80
2021/01/11 07:39:22;;;;;;;22.13;9.30;;;-6.60;99.90;;;;;;4873305;28;86591;-79
2021/01/11 07:41:49;;;;;;;16.47;8.17;;;-6.40;99.90;;;;;;4891132;28;86115;-80
2021/01/11 07:44:24;;;;;;;23.10;9.53;;;-6.40;99.90;;;;;;4890593;28;86855;-80
2021/01/11 07:46:59;;;;;;;20.57;8.93;;;-6.40;99.90;;;;;;4890692;28;86954;-80
2021/01/11 07:49:26;;;;;;;21.13;8.23;;;-6.40;99.90;;;;;;4884255;28;87883;-80
2021/01/11 07:51:53;;;;;;;20.60;7.33;;;-6.40;99.90;;;;;;4891041;28;87314;-79
2021/01/11 07:54:21;;;;;;;17.47;9.23;;;-6.40;99.90;;;;;;4890864;28;87372;-80
2021/01/11 07:56:49;;;;;;;19.67;8.77;;;-6.00;99.90;;;;;;4879056;28;86981;-78
2021/01/11 07:59:15;;;;;;;18.23;8.17;;;-6.00;99.90;;;;;;4891788;28;86588;-80
2021/01/11 08:01:46;;;;;;;21.60;8.93;;;-5.90;99.90;;;;;;4890995;28;86900;-80
2021/01/11 08:04:13;;;;;;;20.55;9.15;;;-5.80;99.90;;;;;;4890877;28;87280;-79
2021/01/11 08:06:51;;;;;;;19.87;8.50;;;-5.60;99.90;;;;;;4890891;28;86971;-80
2021/01/11 08:09:18;;;;;;;23.63;7.23;;;-5.50;99.90;;;;;;4891459;28;86958;-79
2021/01/11 08:11:45;;;;;;;19.53;10.17;;;-5.20;99.90;;;;;;4891003;28;86672;-78
2021/01/11 08:14:11;;;;;;;19.57;10.53;;;-4.70;98.20;;;;;;4890251;28;88200;-78
2021/01/11 08:16:39;;;;;;;25.20;10.40;;;-4.60;98.40;;;;;;4886072;28;88282;-78
2021/01/11 08:19:07;;;;;;;24.17;10.43;;;-4.30;96.80;;;;;;4872521;28;86879;-81
2021/01/11 08:21:32;;;;;;;25.17;10.50;;;-4.00;95.20;;;;;;4892571;28;86705;-80
2021/01/11 08:24:09;;;;;;;21.17;10.80;;;-3.50;92.60;;;;;;4904498;28;88642;-79
2021/01/11 08:26:44;;;;;;;23.03;9.43;;;-3.60;92.80;;;;;;4873715;28;86786;-79
2021/01/11 08:29:11;;;;;;;25.37;8.93;;;-3.50;92.40;;;;;;4887426;28;86995;-80
2021/01/11 08:31:38;;;;;;;16.10;7.27;;;-3.40;91.90;;;;;;4891208;28;86131;-79
2021/01/11 08:34:06;;;;;;;16.80;8.50;;;-3.20;90.90;;;;;;4890114;28;87566;-81
2021/01/11 08:36:32;;;;;;;18.63;9.33;;;-2.80;89.60;;;;;;4889902;28;87038;-79
2021/01/11 08:39:10;;;;;;;19.17;8.13;;;-2.30;87.50;;;;;;4887164;28;87807;-81
2021/01/11 08:41:41;;;;;;;14.82;7.93;;;-1.60;84.10;;;;;;4890018;28;87032;-80
2021/01/11 08:44:22;;;;;;;14.55;7.88;;;-1.10;80.40;;;;;;4890416;28;87113;-81
2021/01/11 08:46:59;;;;;;;15.85;7.80;;;-0.30;78.80;;;;;;4904550;28;89645;-81
2021/01/11 08:49:25;;;;;;;17.63;8.65;;;0.90;71.80;;;;;;4890876;28;87132;-81
2021/01/11 08:51:52;;;;;;;17.15;9.45;;;1.80;68.50;;;;;;4904564;28;86695;-81
2021/01/11 08:54:28;;;;;;;14.98;7.68;;;2.40;63.60;;;;;;4889805;28;87231;-80
2021/01/11 08:56:58;;;;;;;16.00;7.32;;;2.60;61.20;;;;;;4890787;28;86678;-80
2021/01/11 08:59:25;;;;;;;18.70;8.93;;;2.50;60.00;;;;;;4890884;28;87106;-80
2021/01/11 09:01:51;;;;;;;15.68;7.50;;;2.80;59.80;;;;;;4890549;28;87026;-80
2021/01/11 09:04:31;;;;;;;17.20;8.23;;;2.40;59.00;;;;;;4889113;28;88600;-80
2021/01/11 09:07:04;;;;;;;13.73;7.97;;;2.50;59.40;;;;;;4889673;28;87625;-81
2021/01/11 09:09:31;;;;;;;15.13;8.07;;;2.30;59.70;;;;;;4889469;28;86656;-81
2021/01/11 09:12:07;;;;;;;17.33;8.80;;;1.80;60.10;;;;;;4889308;28;86857;-81
2021/01/11 09:14:35;;;;;;;16.80;8.07;;;1.70;61.60;;;;;;4889564;28;87773;-81
2021/01/11 09:17:04;;;;;;;18.95;9.18;;;0.90;62.20;;;;;;4889733;28;87096;-79
2021/01/11 09:19:31;;;;;;;22.42;9.00;;;0.40;64.30;;;;;;4890380;28;86828;-79
2021/01/11 09:22:16;;;;;;;19.05;8.95;;;0.10;65.70;;;;;;4891809;28;86101;-79
2021/01/11 09:24:43;;;;;;;15.35;7.60;;;0.20;66.50;;;;;;4890761;28;87682;-79
2021/01/11 09:27:09;;;;;;;19.48;8.73;;;0.30;66.30;;;;;;4891070;28;87417;-79
2021/01/11 09:29:37;;;;;;;16.77;8.52;;;0.50;64.90;;;;;;4879279;28;87945;-79
2021/01/11 09:32:03;;;;;;;17.40;7.80;;;0.50;63.80;;;;;;4890332;28;87065;-81
2021/01/11 09:34:28;;;;;;;20.40;8.95;;;0.40;64.70;;;;;;4872484;28;90184;-81
2021/01/11 09:36:54;;;;;;;11.95;6.03;;;0.60;64.90;;;;;;4889370;28;86777;-80
2021/01/11 09:39:20;;;;;;;18.98;8.18;;;0.70;63.00;;;;;;4889166;28;86671;-80
2021/01/11 09:41:53;;;;;;;17.67;8.68;;;0.80;63.70;;;;;;4889930;28;87213;-80
2021/01/11 09:44:20;;;;;;;14.45;7.15;;;1.10;62.10;;;;;;4890296;28;87147;-81
2021/01/11 09:46:56;;;;;;;17.73;8.52;;;1.80;60.50;;;;;;4904055;28;88681;-80
2021/01/11 09:49:23;;;;;;;16.48;7.88;;;1.90;61.50;;;;;;4879476;28;86993;-80
2021/01/11 09:51:49;;;;;;;15.40;6.15;;;2.80;58.20;;;;;;4889824;28;86972;-81
2021/01/11 09:54:15;;;;;;;15.88;7.40;;;3.10;55.00;;;;;;4888495;28;88646;-81
2021/01/11 09:56:40;;;;;;;9.43;5.38;;;2.70;56.30;;;;;;4889257;28;87152;-80
2021/01/11 09:59:07;;;;;;;14.60;7.03;;;2.10;56.30;;;;;;4889845;28;86922;-79
2021/01/11 10:01:44;;;;;;;12.85;5.47;;;2.10;57.30;;;;;;4888447;28;86489;-80
2021/01/11 10:04:12;;;;;;;13.77;7.00;;;1.90;57.00;;;;;;4890179;28;88679;-81
2021/01/11 10:06:48;;;;;;;12.20;6.63;;;1.90;57.80;;;;;;4889165;28;86887;-80
2021/01/11 10:09:25;;;;;;;16.73;7.22;;;1.70;57.50;;;;;;4889830;28;86913;-80
2021/01/11 10:11:58;;;;;;;12.07;6.57;;;1.30;59.30;;;;;;4889497;28;86194;-80
2021/01/11 10:14:24;;;;;;;15.73;6.93;;;1.10;60.00;;;;;;4889378;28;87077;-80
2021/01/11 10:16:50;;;;;;;11.52;6.63;;;1.10;61.20;;;;;;4889326;28;86952;-81
2021/01/11 10:19:21;;;;;;;16.77;8.10;;;1.10;60.30;;;;;;4889243;28;87833;-81
2021/01/11 10:21:48;;;;;;;;;;;1.10;60.90;;;;;;4891001;28;86964;-79
2021/01/11 10:24:18;;;;;;;10.95;6.72;;;1.30;61.40;;;;;;4889710;28;87748;-81
2021/01/11 10:26:45;;;;;;;15.10;6.68;;;1.50;61.80;;;;;;4890061;28;87381;-81
2021/01/11 10:29:12;;;;;;;17.52;7.38;;;2.00;60.30;;;;;;4889852;28;86714;-81
2021/01/11 10:31:39;;;;;;;16.88;7.20;;;2.70;58.40;;;;;;4889819;28;86983;-80
2021/01/11 10:34:05;;;;;;;10.63;6.97;;;3.00;56.90;;;;;;4890029;28;87404;-80
2021/01/11 10:36:39;;;;;;;13.68;6.45;;;2.90;57.20;;;;;;4890031;28;88049;-81
2021/01/11 10:39:06;;;;;;;18.73;7.18;;;3.40;55.20;;;;;;4889515;28;86937;-81
2021/01/11 10:41:32;;;;;;;16.13;8.25;;;4.10;55.10;;;;;;4890408;28;86869;-81
2021/01/11 10:43:58;;;;;;;10.45;5.38;;;4.70;53.10;;;;;;4888800;28;87817;-78
2021/01/11 10:46:24;;;;;;;11.70;5.78;;;4.60;51.20;;;;;;4888943;28;87439;-80
2021/01/11 10:48:50;;;;;;;12.70;7.53;;;4.40;50.80;;;;;;4888032;28;86703;-81
2021/01/11 10:51:15;;;;;;;14.57;7.90;;;4.10;51.40;;;;;;4891773;28;86472;-80
2021/01/11 10:53:43;;;;;;;15.45;8.35;;;3.90;52.70;;;;;;4892636;28;87021;-81
2021/01/11 10:56:09;;;;;;;18.05;8.15;;;3.90;52.90;;;;;;4892463;28;87045;-81
2021/01/11 10:58:35;;;;;;;12.73;6.80;;;3.70;52.70;;;;;;4892557;28;86670;-81
2021/01/11 11:01:04;;;;;;;16.45;8.25;;;3.00;54.00;;;;;;4893251;28;86215;-80
2021/01/11 11:03:30;;;;;;;16.50;8.93;;;;;;;;;;4892159;28;87129;-81
2021/01/11 11:05:56;;;;;;;18.25;8.98;;;1.90;56.70;;;;;;4891394;28;87110;-81
2021/01/11 11:08:22;;;;;;;16.98;8.38;;;1.60;58.90;;;;;;4891754;28;88038;-79
2021/01/11 11:10:47;;;;;;;18.20;9.32;;;1.80;59.00;;;;;;4891124;28;86771;-81
2021/01/11 11:13:13;;;;;;;16.35;9.93;;;;;;;;;;4894578;28;86702;-81
2021/01/11 11:15:43;;;;;;;18.15;9.30;;;2.90;56.30;;;;;;4897620;28;88281;-81
2021/01/11 11:18:09;;;;;;;16.67;10.50;;;;;;;;;;4884261;28;86826;-81
2021/01/11 11:20:35;;;;;;;17.52;9.90;;;;;;;;;;4891621;28;86849;-81
2021/01/11 11:23:01;;;;;;;17.75;8.13;;;4.50;50.70;;;;;;4891757;28;87204;-80
2021/01/11 11:25:27;;;;;;;13.85;7.85;;;4.70;50.60;;;;;;4897265;28;88090;-81
2021/01/11 11:27:52;;;;;;;18.55;9.43;;;4.90;50.20;;;;;;4892056;28;86902;-81
2021/01/11 11:30:18;;;;;;;14.48;8.23;;;5.20;50.40;;;;;;4891579;28;87054;-80
2021/01/11 11:32:46;;;;;;;13.20;7.35;;;5.60;50.00;;;;;;4890361;28;87868;-79
2021/01/11 11:35:12;;;;;;;14.05;7.80;;;5.90;48.60;;;;;;4893076;28;87271;-80
2021/01/11 11:37:39;;;;;;;16.60;9.38;;;;;;;;;;4890254;28;87082;-80
2021/01/11 11:40:05;;;;;;;15.60;7.63;;;6.00;47.20;;;;;;4889680;28;87148;-80
2021/01/11 11:42:38;;;;;;;17.15;8.32;;;6.80;47.60;;;;;;4891135;28;87906;-81
2021/01/11 11:45:10;;;;;;;15.52;8.48;;;7.60;45.90;;;;;;4897955;28;87423;-81
2021/01/11 11:47:36;;;;;;;14.07;7.38;;;7.80;44.00;;;;;;4876504;28;87200;-81
2021/01/11 11:50:05;;;;;;;15.40;9.18;;;7.90;40.90;;;;;;4891290;28;85904;-80
2021/01/11 11:52:31;;;;;;;17.30;8.32;;;7.90;41.30;;;;;;4887969;28;87447;-81
2021/01/11 11:54:57;;;;;;;17.13;9.90;;;7.90;43.50;;;;;;4889164;28;87784;-79
2021/01/11 11:57:23;;;;;;;18.92;11.48;;;;;;;;;;4890453;28;87961;-79
2021/01/11 11:59:48;;;;;;;13.73;7.88;;;8.20;42.90;;;;;;4888893;28;87017;-80
2021/01/11 12:02:14;;;;;;;15.07;9.30;;;8.60;42.90;;;;;;4889521;28;87636;-79
2021/01/11 12:04:41;;;;;;;91.88;46.50;;;9.00;42.20;;;;;;4888183;28;89089;-78
2021/01/11 12:07:07;;;;;;;23.50;13.85;;;9.30;39.50;;;;;;4889718;28;86965;-80
2021/01/11 12:09:33;;;;;;;33.63;20.92;;;10.10;38.60;;;;;;4890315;28;86635;-80
2021/01/11 12:12:00;;;;;;;20.30;13.32;;;11.30;36.20;;;;;;4888240;28;87166;-81
2021/01/11 12:14:25;;;;;;;15.85;9.18;;;11.10;37.40;;;;;;4891851;28;88586;-80
2021/01/11 12:16:51;;;;;;;15.82;10.05;;;11.80;35.20;;;;;;4888782;28;87062;-83
2021/01/11 12:19:18;;;;;;;16.58;10.93;;;11.90;35.90;;;;;;4888700;28;87081;-81
2021/01/11 12:21:44;;;;;;;14.38;10.32;;;13.00;35.30;;;;;;4895531;28;88348;-80
2021/01/11 12:24:11;;;;;;;16.58;10.25;;;14.30;31.70;;;;;;4888140;28;87310;-81
2021/01/11 12:26:48;;;;;;;14.48;10.55;;;13.80;31.60;;;;;;4887462;28;87963;-80
2021/01/11 12:29:15;;;;;;;17.13;11.45;;;13.70;31.70;;;;;;4894490;28;86953;-80
2021/01/11 12:31:41;;;;;;;18.33;11.20;;;13.70;33.00;;;;;;4888319;28;87370;-82
2021/01/11 12:34:07;;;;;;;16.58;10.68;;;12.60;32.90;;;;;;4889172;28;86941;-82
2021/01/11 12:36:35;;;;;;;15.15;9.80;;;12.50;33.50;;;;;;4898845;28;86624;-79
2021/01/11 12:39:03;;;;;;;15.40;11.05;;;12.00;34.70;;;;;;4894523;28;85861;-79
2021/01/11 12:41:29;;;;;;;20.48;11.63;;;10.90;36.10;;;;;;4888251;28;87494;-79
2021/01/11 12:43:55;;;;;;;17.77;10.90;;;10.30;36.50;;;;;;4888070;28;87085;-80
2021/01/11 12:46:23;;;;;;;17.90;11.57;;;10.30;37.00;;;;;;4886524;28;87245;-79
2021/01/11 12:48:50;;;;;;;18.95;12.65;;;8.80;38.20;;;;;;4892641;28;87018;-79
2021/01/11 12:51:18;;;;;;;21.52;12.93;;;8.70;39.90;;;;;;4886554;28;86850;-78
2021/01/11 12:53:49;;;;;;;20.45;13.50;;;8.10;41.00;;;;;;4886608;28;87020;-79
2021/01/11 12:56:18;;;;;;;20.83;13.98;;;7.50;41.70;;;;;;4887958;28;86922;-80
2021/01/11 12:58:48;;;;;;;22.27;14.00;;;7.20;42.80;;;;;;4885505;28;87107;-79
2021/01/11 13:01:22;;;;;;;19.48;13.50;;;7.10;42.90;;;;;;4886631;28;87221;-79
2021/01/11 13:03:48;;;;;;;22.38;12.13;;;7.10;43.40;;;;;;4889622;28;86259;-79
2021/01/11 13:06:26;;;;;;;23.60;13.57;;;7.40;43.30;;;;;;4886661;28;87390;-80
2021/01/11 13:08:52;;;;;;;18.77;12.05;;;7.60;43.20;;;;;;4877452;28;87089;-79
2021/01/11 13:11:20;;;;;;;25.90;14.23;;;7.90;42.10;;;;;;4887209;28;88591;-80
2021/01/11 13:13:47;;;;;;;19.95;13.43;;;8.70;41.50;;;;;;4886492;28;88465;-79
2021/01/11 13:16:28;;;;;;;20.15;12.23;;;9.30;40.60;;;;;;4887438;28;86955;-80
2021/01/11 13:18:58;;;;;;;23.48;14.77;;;10.10;39.20;;;;;;4887500;28;86859;-80
2021/01/11 13:21:25;;;;;;;22.88;14.43;;;10.20;40.10;;;;;;4887213;28;87273;-80
2021/01/11 13:23:51;;;;;;;24.23;14.85;;;11.30;37.60;;;;;;4888473;28;86804;-80
2021/01/11 13:26:23;;;;;;;18.63;12.73;;;11.30;38.60;;;;;;4887979;28;86779;-79
2021/01/11 13:28:50;;;;;;;19.20;12.77;;;11.90;36.70;;;;;;4869861;28;86426;-80
2021/01/11 13:31:16;;;;;;;18.55;12.75;;;12.20;37.00;;;;;;4886223;28;86667;-80
2021/01/11 13:33:42;;;;;;;23.73;13.40;;;12.50;36.90;;;;;;4897626;28;86831;-81
2021/01/11 13:36:08;;;;;;;16.48;13.07;;;12.60;35.80;;;;;;4888859;28;87662;-80
2021/01/11 13:38:34;;;;;;;20.23;13.60;;;12.70;35.50;;;;;;4895581;28;86229;-79
2021/01/11 13:40:59;;;;;;;17.67;13.43;;;12.70;36.00;;;;;;4887195;28;87314;-79
2021/01/11 13:43:25;;;;;;;20.05;12.98;;;12.70;35.70;;;;;;4887405;28;86800;-80
2021/01/11 13:45:51;;;;;;;18.83;13.52;;;12.60;35.90;;;;;;4887009;28;87019;-80
2021/01/11 13:48:18;;;;;;;19.52;13.52;;;12.20;36.40;;;;;;4887268;28;87079;-79
2021/01/11 13:50:44;;;;;;;20.85;13.93;;;11.40;36.60;;;;;;4885832;28;87243;-80
2021/01/11 13:53:11;;;;;;;20.58;14.73;;;11.40;37.30;;;;;;4889036;28;87001;-81
2021/01/11 13:55:36;;;;;;;21.60;13.80;;;10.70;37.60;;;;;;4887758;28;87005;-80
2021/01/11 13:58:02;;;;;;;22.15;14.93;;;10.30;38.40;;;;;;4886895;28;86891;-81
2021/01/11 14:00:28;;;;;;;22.55;14.63;;;10.30;38.90;;;;;;4894949;28;88350;-79
2021/01/11 14:02:54;;;;;;;20.38;14.00;;;9.80;39.70;;;;;;4890390;28;87804;-79
2021/01/11 14:05:20;;;;;;;18.95;13.75;;;9.50;40.90;;;;;;4889187;28;86259;-79
2021/01/11 14:07:47;;;;;;;23.45;15.35;;;9.20;41.10;;;;;;4870494;28;87061;-79
2021/01/11 14:10:13;;;;;;;21.02;13.57;;;9.20;41.50;;;;;;4887438;28;86963;-79
2021/01/11 14:12:40;;;;;;;18.90;13.95;;;8.80;41.70;;;;;;4893530;28;87476;-80
2021/01/11 14:15:07;;;;;;;19.05;13.73;;;8.70;42.10;;;;;;4887585;28;87131;-79
2021/01/11 14:17:33;;;;;;;17.73;12.93;;;8.40;43.00;;;;;;4889586;28;86277;-79
2021/01/11 14:20:00;;;;;;;17.67;13.18;;;8.20;43.30;;;;;;4889499;28;88200;-79
2021/01/11 14:22:26;;;;;;;20.65;13.32;;;8.00;43.60;;;;;;4889097;28;87295;-79
2021/01/11 14:24:52;;;;;;;20.02;12.88;;;7.80;43.80;;;;;;4886440;28;87893;-79
2021/01/11 14:27:18;;;;;;;18.42;12.48;;;7.60;44.30;;;;;;4890098;28;86960;-80
2021/01/11 14:29:43;;;;;;;19.73;13.20;;;7.40;45.00;;;;;;4889822;28;86965;-79
2021/01/11 14:32:09;;;;;;;21.70;12.73;;;7.10;45.40;;;;;;4881291;28;86717;-81
2021/01/11 14:34:35;;;;;;;20.50;13.52;;;7.10;45.80;;;;;;4887685;28;86898;-80
2021/01/11 14:37:02;;;;;;;20.15;13.50;;;6.30;46.80;;;;;;4889641;28;86877;-80
2021/01/11 14:39:29;;;;;;;19.15;12.77;;;6.10;47.40;;;;;;4886797;28;87740;-80
2021/01/11 14:41:55;;;;;;;20.73;13.60;;;5.90;48.40;;;;;;4887085;28;88175;-79
2021/01/11 14:44:21;;;;;;;19.83;13.27;;;5.50;49.10;;;;;;4892675;28;86840;-81
2021/01/11 14:46:48;;;;;;;23.00;14.10;;;5.30;49.60;;;;;;4879568;28;86976;-80
2021/01/11 14:49:13;;;;;;;23.15;13.60;;;5.20;50.20;;;;;;4889219;28;88025;-80
2021/01/11 14:51:43;;;;;;;22.02;13.30;;;4.90;51.00;;;;;;4888200;28;88267;-79
2021/01/11 14:54:09;;;;;;;24.25;14.23;;;4.40;51.90;;;;;;4888866;28;86668;-79
2021/01/11 14:56:35;;;;;;;21.25;12.93;;;4.20;52.60;;;;;;4889019;28;86924;-80
2021/01/11 14:59:00;;;;;;;24.58;13.93;;;3.90;53.60;;;;;;4884239;28;87093;-80
2021/01/11 15:01:28;;;;;;;26.35;14.20;;;3.60;54.50;;;;;;4886801;28;87001;-78
2021/01/11 15:03:54;;;;;;;25.75;15.80;;;3.30;55.00;;;;;;4882986;28;86931;-79
2021/01/11 15:06:20;;;;;;;32.22;16.67;;;2.80;56.10;;;;;;4884527;28;86183;-79
2021/01/11 15:08:47;;;;;;;26.48;14.77;;;2.90;56.40;;;;;;4880806;28;87603;-80
2021/01/11 15:11:14;;;;;;;26.45;14.85;;;2.40;58.40;;;;;;4887853;28;87054;-80
2021/01/11 15:13:41;;;;;;;28.05;14.50;;;2.10;58.70;;;;;;4884286;28;87723;-79
2021/01/11 15:16:07;;;;;;;25.58;15.32;;;1.60;60.00;;;;;;4892097;28;87011;-80
2021/01/11 15:18:33;;;;;;;29.40;15.05;;;1.70;60.80;;;;;;4890185;28;87088;-79
2021/01/11 15:21:21;;;;;;;26.60;13.38;;;1.40;60.70;;;;;;4885002;28;88710;-79
2021/01/11 15:23:47;;;;;;;26.60;14.55;;;0.60;62.00;;;;;;4878684;28;86785;-78
2021/01/11 15:26:13;;;;;;;27.80;14.30;;;0.90;62.50;;;;;;4889730;28;87020;-79
2021/01/11 15:28:39;;;;;;;26.23;13.60;;;0.80;63.90;;;;;;4889762;28;86875;-80
2021/01/11 15:31:07;;;;;;;29.25;14.07;;;0.60;67.80;;;;;;4889472;28;86224;-80
2021/01/11 15:33:33;;;;;;;26.02;13.90;;;0.30;65.90;;;;;;4890367;28;86580;-80
2021/01/11 15:35:59;;;;;;;30.00;16.75;;;;;;;;;;4887493;28;87763;-80
2021/01/11 15:38:28;;;;;;;30.70;14.88;;;0.00;67.20;;;;;;4888853;28;88100;-79
2021/01/11 15:40:54;;;;;;;26.00;14.20;;;-0.30;70.50;;;;;;4872886;28;87366;-78
2021/01/11 15:43:20;;;;;;;23.75;13.50;;;;;;;;;;4881497;28;86898;-79
2021/01/11 15:45:48;;;;;;;29.02;14.00;;;-0.50;71.90;;;;;;4888967;28;86885;-81
2021/01/11 15:48:14;;;;;;;26.50;14.57;;;-0.10;75.40;;;;;;4893492;28;87639;-79
2021/01/11 15:50:39;;;;;;;31.15;15.82;;;-0.70;72.70;;;;;;4894424;28;87751;-79
2021/01/11 15:53:05;;;;;;;32.78;15.55;;;;;;;;;;4892228;28;86898;-79
2021/01/11 15:55:31;;;;;;;34.53;16.27;;;;;;;;;;4890393;28;86082;-79
2021/01/11 15:57:57;;;;;;;35.08;15.63;;;-1.00;74.20;;;;;;4887899;28;87765;-79
2021/01/11 16:00:24;;;;;;;31.92;16.70;;;-1.00;78.10;;;;;;4889091;28;86669;-80
2021/01/11 16:02:50;;;;;;;33.42;16.75;;;;;;;;;;4888979;28;87766;-79
2021/01/11 16:05:18;;;;;;;36.38;17.30;;;-1.30;76.10;;;;;;4894303;28;86586;-80
2021/01/11 16:07:44;;;;;;;30.17;15.70;;;-1.20;81.00;;;;;;4886047;28;87420;-80
2021/01/11 16:10:11;;;;;;;33.40;16.27;;;-1.40;80.80;;;;;;4890126;28;87384;-80
2021/01/11 16:12:37;;;;;;;36.30;16.13;;;-1.50;79.40;;;;;;4890270;28;86826;-81
2021/01/11 16:15:05;;;;;;;34.97;17.58;;;-1.60;79.40;;;;;;4892245;28;86318;-81
2021/01/11 16:17:35;;;;;;;43.45;21.13;;;-2.10;83.50;;;;;;4890061;28;87306;-80
2021/01/11 16:20:01;;;;;;;37.38;19.70;;;;;;;;;;4871107;28;89525;-80
2021/01/11 16:22:27;;;;;;;31.38;16.55;;;;;;;;;;4889629;28;88815;-81
2021/01/11 16:24:54;;;;;;;26.15;13.88;;;-2.00;82.40;;;;;;4888388;28;86635;-79
2021/01/11 16:27:23;;;;;;;29.55;15.07;;;-2.00;85.40;;;;;;4885568;28;87839;-78
2021/01/11 16:29:49;;;;;;;28.70;14.05;;;-2.10;88.10;;;;;;4880356;28;88352;-80
2021/01/11 16:32:17;;;;;;;33.95;15.48;;;-2.70;94.10;;;;;;4886766;28;86891;-80
2021/01/11 16:34:43;;;;;;;33.67;15.80;;;-2.30;90.40;;;;;;4889411;28;86909;-81